Time;durP1;ratioP1;P1;durP2;ratioP2;P2;SDS_P1;SDS_P2;PMS_P1;PMS_P2;Temp;Humidity;BMP_temperature;BMP_pressure;BME280_temperature;BME280_humidity;BME280_pressure;Samples;Min_cycle;Max_cycle;Signal;HPM_P1;HPM_P2
2023/05/19 00:02:20;;;;;;;;;;;13.90;93.00;;;;;;6249889;28;20053;-73
2023/05/19 00:05:23;;;;;;;6.60;3.10;;;13.70;93.40;;;;;;6249235;28;19921;-74
2023/05/19 00:08:25;;;;;;;;;;;13.70;93.70;;;;;;6249028;28;20068;-73
2023/05/19 00:11:28;;;;;;;7.55;3.33;;;13.80;93.70;;;;;;6249087;28;19921;-74
2023/05/19 00:14:32;;;;;;;7.55;3.35;;;13.80;93.30;;;;;;6250356;28;20050;-74
2023/05/19 00:17:35;;;;;;;8.57;3.15;;;13.80;93.40;;;;;;6258051;28;20056;-73
2023/05/19 00:20:37;;;;;;;9.40;3.50;;;13.80;93.60;;;;;;6253632;28;20491;-74
2023/05/19 00:23:39;;;;;;;9.05;3.00;;;13.70;93.10;;;;;;6233190;28;20057;-73
2023/05/19 00:26:41;;;;;;;9.10;3.08;;;13.70;92.90;;;;;;6248361;28;20494;-75
2023/05/19 00:29:44;;;;;;;7.80;2.75;;;13.80;93.10;;;;;;6248637;28;20053;-74
2023/05/19 00:32:46;;;;;;;8.15;2.78;;;13.70;92.40;;;;;;6248400;28;20085;-74
2023/05/19 00:35:48;;;;;;;6.97;3.20;;;13.80;93.00;;;;;;6248091;28;20339;-74
2023/05/19 00:38:50;;;;;;;8.80;3.17;;;13.90;93.20;;;;;;6247976;28;20049;-74
2023/05/19 00:41:52;;;;;;;6.60;2.97;;;13.90;93.20;;;;;;6247989;28;20053;-74
2023/05/19 00:44:55;;;;;;;7.43;2.70;;;13.90;93.20;;;;;;6248253;28;20060;-74
2023/05/19 00:47:57;;;;;;;8.20;2.78;;;13.90;92.80;;;;;;6248883;28;20062;-74
2023/05/19 00:51:05;;;;;;;8.45;3.00;;;14.00;93.10;;;;;;6241367;28;20049;-75
2023/05/19 00:54:07;;;;;;;6.53;3.10;;;13.80;93.10;;;;;;6223597;28;20582;-74
2023/05/19 00:57:09;;;;;;;7.45;2.85;;;13.80;93.30;;;;;;6223783;28;20058;-74
2023/05/19 01:00:14;;;;;;;8.90;3.33;;;13.80;93.30;;;;;;6244280;28;20053;-75
2023/05/19 01:03:19;;;;;;;7.60;2.67;;;13.90;93.50;;;;;;6248443;28;20482;-73
2023/05/19 01:06:21;;;;;;;9.48;3.25;;;13.90;93.50;;;;;;6250648;28;20050;-74
2023/05/19 01:09:23;;;;;;;8.07;3.20;;;13.90;93.60;;;;;;6251796;28;20056;-75
2023/05/19 01:12:26;;;;;;;7.53;2.97;;;13.90;93.50;;;;;;6234622;28;20041;-74
2023/05/19 01:15:32;;;;;;;6.68;2.60;;;13.90;93.50;;;;;;6252883;28;20506;-75
2023/05/19 01:18:45;;;;;;;7.90;2.75;;;13.90;92.90;;;;;;6252793;28;20053;-74
2023/05/19 01:22:11;;;;;;;;;;;13.80;93.40;;;;;;6252997;28;20049;-74
2023/05/19 01:25:41;;;;;;;9.00;3.10;;;13.90;93.70;;;;;;6235351;28;19952;-75
2023/05/19 01:29:29;;;;;;;8.25;3.35;;;13.90;93.90;;;;;;6252325;28;20049;-75
2023/05/19 01:32:34;;;;;;;8.18;3.13;;;13.80;94.00;;;;;;6243359;28;20483;-75
2023/05/19 01:35:38;;;;;;;10.82;3.47;;;13.80;93.80;;;;;;6227482;28;20053;-74
2023/05/19 01:38:43;;;;;;;11.25;3.38;;;13.60;94.10;;;;;;6236923;28;20053;-74
2023/05/19 01:41:46;;;;;;;9.43;3.55;;;13.70;94.50;;;;;;6251255;28;20055;-73
2023/05/19 01:44:48;;;;;;;8.57;2.97;;;13.70;94.70;;;;;;6251774;28;20046;-73
2023/05/19 01:47:56;;;;;;;8.07;3.10;;;13.70;94.40;;;;;;6251518;28;20053;-75
2023/05/19 01:50:57;;;;;;;8.98;3.33;;;13.60;94.80;;;;;;6252396;28;20045;-73
2023/05/19 01:54:00;;;;;;;7.68;3.08;;;13.60;94.50;;;;;;6251304;28;20053;-73
2023/05/19 01:57:15;;;;;;;7.05;3.08;;;13.60;93.70;;;;;;6252202;28;20069;-74
2023/05/19 02:00:29;;;;;;;8.18;2.95;;;13.40;93.90;;;;;;6251958;28;20048;-74
2023/05/19 02:03:57;;;;;;;6.15;2.90;;;13.50;93.80;;;;;;6251864;28;20053;-74
2023/05/19 02:07:09;;;;;;;8.48;3.38;;;13.50;93.40;;;;;;6251646;28;20052;-75
2023/05/19 02:10:19;;;;;;;6.22;2.72;;;13.30;93.10;;;;;;6250746;28;20510;-74
2023/05/19 02:13:27;;;;;;;6.50;2.90;;;13.50;93.00;;;;;;6228829;28;20061;-74
2023/05/19 02:16:30;;;;;;;7.55;2.80;;;13.50;92.70;;;;;;6247555;28;20041;-74
2023/05/19 02:19:38;;;;;;;6.13;2.97;;;13.50;93.00;;;;;;6250685;28;20041;-74
2023/05/19 02:22:40;;;;;;;8.18;3.00;;;13.50;92.90;;;;;;6250576;28;20068;-74
2023/05/19 02:25:42;;;;;;;7.47;2.80;;;13.60;92.20;;;;;;6248101;28;20056;-74
2023/05/19 02:28:44;;;;;;;6.78;3.30;;;13.50;92.70;;;;;;6234194;28;20042;-74
2023/05/19 02:31:46;;;;;;;5.65;2.72;;;13.30;92.70;;;;;;6251454;28;20045;-74
2023/05/19 02:34:50;;;;;;;6.03;2.58;;;13.10;93.20;;;;;;6260122;28;20056;-74
2023/05/19 02:37:52;;;;;;;7.35;3.08;;;13.20;93.90;;;;;;6264505;28;20415;-74
2023/05/19 02:40:54;;;;;;;7.00;2.92;;;13.20;93.00;;;;;;6244252;28;20069;-73
2023/05/19 02:43:56;;;;;;;7.70;3.03;;;13.20;93.30;;;;;;6251323;28;20045;-74
2023/05/19 02:46:58;;;;;;;6.35;2.83;;;13.40;93.40;;;;;;6250972;28;20073;-74
2023/05/19 02:50:02;;;;;;;6.10;2.55;;;13.30;93.60;;;;;;6248998;28;20041;-75
2023/05/19 02:53:04;;;;;;;;;;;13.30;93.50;;;;;;6251202;28;20049;-75
2023/05/19 02:56:06;;;;;;;7.35;2.88;;;13.40;93.70;;;;;;6250374;28;20270;-74
2023/05/19 02:59:08;;;;;;;8.52;3.08;;;13.40;93.60;;;;;;6250252;28;20045;-74
2023/05/19 03:02:10;;;;;;;6.63;2.90;;;13.40;93.60;;;;;;6237341;28;20048;-74
2023/05/19 03:05:13;;;;;;;6.55;3.13;;;13.40;93.50;;;;;;6225670;28;20522;-75
2023/05/19 03:08:15;;;;;;;;;;;13.10;94.00;;;;;;6248102;28;20478;-74
2023/05/19 03:11:17;;;;;;;5.50;3.00;;;13.10;93.60;;;;;;6250510;28;19928;-74
2023/05/19 03:14:22;;;;;;;6.80;3.10;;;13.20;94.00;;;;;;6250843;28;20045;-73
2023/05/19 03:17:24;;;;;;;6.25;3.08;;;13.20;94.20;;;;;;6250446;28;20050;-73
2023/05/19 03:20:29;;;;;;;6.95;3.47;;;13.20;94.00;;;;;;6249625;28;20063;-73
2023/05/19 03:23:31;;;;;;;6.20;3.00;;;13.10;94.30;;;;;;6250085;28;20491;-73
2023/05/19 03:26:32;;;;;;;7.53;3.08;;;13.00;94.30;;;;;;6249590;28;20053;-73
2023/05/19 03:29:35;;;;;;;8.57;3.13;;;13.00;94.60;;;;;;6249366;28;20045;-74
2023/05/19 03:32:37;;;;;;;8.32;3.03;;;13.10;94.40;;;;;;6248977;28;20049;-75
2023/05/19 03:35:40;;;;;;;6.60;3.05;;;13.10;94.50;;;;;;6249794;28;20050;-75
2023/05/19 03:38:42;;;;;;;7.88;3.30;;;13.00;94.40;;;;;;6249749;28;20164;-74
2023/05/19 03:41:44;;;;;;;8.20;3.05;;;13.10;94.30;;;;;;6249621;28;20479;-74
2023/05/19 03:44:47;;;;;;;5.90;3.20;;;13.10;94.30;;;;;;6231401;28;20053;-74
2023/05/19 03:47:49;;;;;;;7.60;3.30;;;12.90;94.60;;;;;;6249034;28;20056;-75
2023/05/19 03:50:53;;;;;;;7.20;3.10;;;12.80;94.80;;;;;;6246053;28;20069;-74
2023/05/19 03:53:55;;;;;;;8.02;3.10;;;12.70;94.60;;;;;;6224446;28;20050;-74
2023/05/19 03:56:58;;;;;;;8.43;3.10;;;12.70;95.20;;;;;;6236727;28;20071;-74
2023/05/19 03:59:59;;;;;;;7.20;3.33;;;12.80;95.10;;;;;;6249047;28;20053;-74
2023/05/19 04:03:01;;;;;;;7.30;3.28;;;12.90;95.00;;;;;;6249210;28;20041;-75
2023/05/19 04:06:05;;;;;;;7.80;3.35;;;12.90;95.40;;;;;;6244464;28;20053;-75
2023/05/19 04:09:11;;;;;;;;;;;12.80;95.40;;;;;;6238217;28;20056;-74
2023/05/19 04:12:13;;;;;;;9.20;3.60;;;12.90;95.20;;;;;;6239211;28;19928;-75
2023/05/19 04:15:15;;;;;;;8.05;3.33;;;12.80;95.40;;;;;;6224152;28;20484;-75
2023/05/19 04:18:17;;;;;;;8.05;3.00;;;12.80;95.30;;;;;;6228549;28;20188;-75
2023/05/19 04:21:21;;;;;;;8.85;3.47;;;12.90;95.50;;;;;;6248140;28;20452;-75
2023/05/19 04:24:23;;;;;;;9.48;3.70;;;12.80;95.50;;;;;;6248476;28;20056;-74
2023/05/19 04:27:26;;;;;;;9.57;3.90;;;12.90;95.80;;;;;;6248184;28;20053;-74
2023/05/19 04:30:28;;;;;;;10.55;3.50;;;12.90;95.10;;;;;;6247981;28;20050;-73
2023/05/19 04:33:32;;;;;;;8.90;3.50;;;13.00;95.00;;;;;;6248327;28;20049;-74
2023/05/19 04:36:37;;;;;;;8.48;3.22;;;13.10;95.20;;;;;;6232759;28;20053;-75
2023/05/19 04:39:41;;;;;;;8.52;3.80;;;13.20;95.10;;;;;;6238565;28;20045;-75
2023/05/19 04:42:44;;;;;;;8.75;3.47;;;13.20;95.10;;;;;;6247583;28;20140;-75
2023/05/19 04:45:49;;;;;;;11.50;3.50;;;13.20;95.00;;;;;;6247889;28;20055;-74
2023/05/19 04:48:51;;;;;;;10.00;3.67;;;13.20;94.90;;;;;;6247875;28;20124;-74
2023/05/19 04:51:55;;;;;;;11.90;3.63;;;13.20;95.00;;;;;;6249492;28;20140;-76
2023/05/19 04:54:57;;;;;;;9.13;3.47;;;13.20;94.80;;;;;;6247203;28;20114;-77
2023/05/19 04:57:59;;;;;;;10.65;3.42;;;13.20;95.10;;;;;;6247534;28;20041;-76
2023/05/19 05:01:01;;;;;;;12.35;4.20;;;13.00;95.40;;;;;;6249495;28;20038;-75
2023/05/19 05:04:03;;;;;;;11.65;3.72;;;13.20;95.70;;;;;;6242139;28;20395;-75
2023/05/19 05:07:06;;;;;;;9.25;4.13;;;13.20;95.50;;;;;;6243964;28;20046;-75
2023/05/19 05:10:10;;;;;;;9.45;3.90;;;13.10;95.80;;;;;;6236090;28;20057;-75
2023/05/19 05:13:12;;;;;;;8.90;3.80;;;12.90;96.00;;;;;;6242269;28;20041;-73
2023/05/19 05:16:15;;;;;;;9.43;4.07;;;13.10;95.90;;;;;;6244749;28;20050;-73
2023/05/19 05:19:18;;;;;;;8.73;3.40;;;13.10;96.00;;;;;;6247246;28;20049;-74
2023/05/19 05:22:22;;;;;;;8.80;3.78;;;13.30;95.90;;;;;;6242131;28;20050;-74
2023/05/19 05:25:25;;;;;;;9.27;3.67;;;13.30;95.80;;;;;;6239236;28;20056;-75
2023/05/19 05:28:27;;;;;;;8.07;3.55;;;13.40;96.10;;;;;;6247788;28;20056;-75
2023/05/19 05:31:28;;;;;;;8.05;3.40;;;13.30;96.30;;;;;;6236908;28;20050;-73
2023/05/19 05:34:30;;;;;;;8.50;3.03;;;13.30;96.00;;;;;;6247377;28;20046;-75
2023/05/19 05:37:33;;;;;;;10.30;3.33;;;13.40;95.50;;;;;;6246850;28;20407;-74
2023/05/19 05:40:35;;;;;;;8.10;2.95;;;13.50;95.50;;;;;;6246975;28;20725;-74
2023/05/19 05:43:37;;;;;;;7.97;3.42;;;13.40;95.60;;;;;;6247244;28;20041;-74
2023/05/19 05:46:40;;;;;;;11.93;3.42;;;13.50;95.40;;;;;;6247227;28;20057;-76
2023/05/19 05:49:42;;;;;;;6.20;2.83;;;13.60;95.50;;;;;;6248873;28;20068;-75
2023/05/19 05:52:48;;;;;;;9.93;3.47;;;13.50;95.70;;;;;;6250122;28;20046;-74
2023/05/19 05:55:52;;;;;;;10.43;3.60;;;13.50;95.70;;;;;;6251720;28;20505;-76
2023/05/19 05:58:54;;;;;;;8.57;3.40;;;13.60;96.00;;;;;;6251989;28;20487;-73
2023/05/19 06:01:56;;;;;;;10.30;3.45;;;13.60;95.70;;;;;;6252179;28;20045;-74
2023/05/19 06:04:57;;;;;;;8.13;3.22;;;13.70;96.30;;;;;;6264586;28;20052;-75
2023/05/19 06:08:01;;;;;;;11.30;3.90;;;13.60;96.50;;;;;;6271251;28;20105;-74
2023/05/19 06:11:07;;;;;;;7.95;3.60;;;13.70;96.40;;;;;;6271561;28;20438;-74
2023/05/19 06:14:09;;;;;;;9.60;3.80;;;13.80;96.20;;;;;;6260130;28;20053;-75
2023/05/19 06:17:11;;;;;;;12.13;3.75;;;14.00;95.90;;;;;;6251125;28;20049;-75
2023/05/19 06:20:13;;;;;;;7.55;3.15;;;14.10;94.70;;;;;;6239817;28;20058;-74
2023/05/19 06:23:16;;;;;;;9.90;3.38;;;14.00;95.30;;;;;;6249474;28;20049;-76
2023/05/19 06:26:18;;;;;;;10.52;3.13;;;14.10;94.60;;;;;;6250816;28;20057;-75
2023/05/19 06:29:20;;;;;;;8.82;3.22;;;13.90;94.00;;;;;;6250905;28;20050;-74
2023/05/19 06:32:22;;;;;;;9.77;3.72;;;13.90;93.80;;;;;;6250938;28;20045;-76
2023/05/19 06:35:24;;;;;;;8.52;3.33;;;13.60;93.70;;;;;;6250853;28;20359;-75
2023/05/19 06:38:27;;;;;;;8.68;3.08;;;13.70;94.00;;;;;;6250777;28;20060;-75
2023/05/19 06:41:29;;;;;;;8.88;3.15;;;13.90;94.10;;;;;;6250413;28;20060;-74
2023/05/19 06:44:31;;;;;;;13.55;3.40;;;14.00;93.70;;;;;;6251237;28;20131;-75
2023/05/19 06:47:32;;;;;;;9.55;3.53;;;14.00;93.80;;;;;;6264075;28;20049;-75
2023/05/19 06:50:34;;;;;;;11.50;3.78;;;14.00;94.10;;;;;;6265946;28;20051;-72
2023/05/19 06:53:38;;;;;;;10.27;3.78;;;13.70;93.70;;;;;;6255371;28;20046;-74
2023/05/19 06:56:39;;;;;;;9.95;3.33;;;14.00;93.90;;;;;;6236907;28;20529;-74
2023/05/19 06:59:42;;;;;;;8.65;3.53;;;14.30;94.00;;;;;;6255727;28;20053;-74
2023/05/19 07:02:44;;;;;;;9.73;3.30;;;14.10;93.50;;;;;;6252574;28;20171;-73
2023/05/19 07:05:46;;;;;;;8.25;3.42;;;14.10;93.80;;;;;;6259408;28;20045;-74
2023/05/19 07:08:49;;;;;;;10.10;3.65;;;14.10;93.40;;;;;;6247612;28;20050;-75
2023/05/19 07:11:51;;;;;;;10.18;3.58;;;14.10;94.20;;;;;;6248469;28;20065;-74
2023/05/19 07:14:53;;;;;;;10.35;3.60;;;14.10;94.40;;;;;;6249989;28;20052;-75
2023/05/19 07:17:55;;;;;;;9.27;3.63;;;14.20;94.00;;;;;;6230466;28;20045;-75
2023/05/19 07:20:57;;;;;;;11.27;3.33;;;14.40;94.10;;;;;;6248053;28;20411;-76
2023/05/19 07:24:01;;;;;;;8.55;3.95;;;14.40;93.70;;;;;;6237072;28;20045;-76
2023/05/19 07:27:03;;;;;;;12.45;4.10;;;14.00;94.00;;;;;;6231878;28;20487;-73
2023/05/19 07:30:06;;;;;;;9.25;3.53;;;14.20;94.00;;;;;;6249339;28;20053;-74
2023/05/19 07:33:08;;;;;;;;;;;14.30;93.80;;;;;;6248372;28;20439;-76
2023/05/19 07:36:10;;;;;;;8.93;3.53;;;14.30;93.70;;;;;;6249231;28;19928;-75
2023/05/19 07:39:13;;;;;;;10.73;3.60;;;14.40;94.00;;;;;;6249671;28;20049;-75
2023/05/19 07:42:15;;;;;;;16.17;4.68;;;14.50;93.90;;;;;;6249478;28;20048;-73
2023/05/19 07:45:20;;;;;;;11.88;4.20;;;14.40;94.20;;;;;;6231852;28;20091;-76
2023/05/19 07:48:23;;;;;;;9.85;3.65;;;14.40;93.90;;;;;;6247157;28;20050;-74
2023/05/19 07:51:25;;;;;;;12.18;4.07;;;14.50;94.00;;;;;;6249034;28;20596;-75
2023/05/19 07:54:28;;;;;;;8.48;3.75;;;14.60;93.20;;;;;;6249071;28;20041;-75
2023/05/19 07:57:31;;;;;;;12.40;4.40;;;14.70;93.20;;;;;;6258992;28;20051;-74
2023/05/19 08:00:35;;;;;;;20.67;5.13;;;14.60;93.10;;;;;;6248804;28;20104;-75
2023/05/19 08:03:37;;;;;;;15.13;5.20;;;14.70;92.80;;;;;;6248132;28;20407;-76
2023/05/19 08:06:41;;;;;;;15.27;5.57;;;14.50;93.10;;;;;;6234805;28;20408;-75
2023/05/19 08:09:44;;;;;;;11.00;4.20;;;14.50;93.90;;;;;;6247745;28;20097;-75
2023/05/19 08:12:48;;;;;;;13.00;4.32;;;14.60;93.60;;;;;;6248053;28;20048;-74
2023/05/19 08:15:50;;;;;;;;;;;14.40;93.70;;;;;;6246320;28;20053;-75
2023/05/19 08:18:51;;;;;;;11.75;3.80;;;14.40;94.40;;;;;;6248592;28;19921;-75
2023/05/19 08:21:54;;;;;;;12.90;5.18;;;14.50;94.40;;;;;;6248126;28;20060;-74
2023/05/19 08:24:57;;;;;;;18.60;10.40;;;14.50;94.00;;;;;;6246926;28;20487;-75
2023/05/19 08:27:59;;;;;;;8.63;4.32;;;14.40;94.00;;;;;;6245144;28;20049;-74
2023/05/19 08:31:01;;;;;;;10.45;3.90;;;14.60;93.30;;;;;;6227340;28;20129;-71
2023/05/19 08:34:03;;;;;;;8.55;3.53;;;14.30;96.60;;;;;;6223942;28;20048;-69
2023/05/19 08:37:05;;;;;;;10.40;3.65;;;14.80;96.50;;;;;;6223885;28;20046;-75
2023/05/19 08:40:16;;;;;;;9.85;3.35;;;14.90;93.50;;;;;;6237910;28;20049;-75
2023/05/19 08:43:18;;;;;;;13.27;4.20;;;15.00;93.00;;;;;;6238788;28;20125;-77
2023/05/19 08:46:22;;;;;;;10.32;3.53;;;15.00;92.60;;;;;;6246690;28;20055;-75
2023/05/19 08:49:28;;;;;;;10.63;3.42;;;14.90;92.80;;;;;;6245602;28;20430;-74
2023/05/19 08:52:44;;;;;;;8.27;3.38;;;15.00;93.10;;;;;;6246750;28;20131;-77
2023/05/19 08:55:57;;;;;;;11.40;5.20;;;14.90;93.70;;;;;;6247751;28;20458;-74
2023/05/19 08:58:59;;;;;;;7.88;3.58;;;14.80;93.20;;;;;;6247960;28;20049;-75
2023/05/19 09:02:02;;;;;;;10.63;3.70;;;14.80;93.00;;;;;;6247449;28;20053;-75
2023/05/19 09:05:05;;;;;;;10.38;3.38;;;14.60;92.80;;;;;;6236264;28;20075;-75
2023/05/19 09:08:07;;;;;;;11.88;3.35;;;14.70;92.60;;;;;;6223583;28;20144;-74
2023/05/19 09:11:11;;;;;;;8.77;3.50;;;14.80;92.90;;;;;;6230069;28;20053;-75
2023/05/19 09:14:13;;;;;;;10.68;3.55;;;14.80;92.80;;;;;;6247092;28;20068;-74
2023/05/19 09:17:15;;;;;;;9.57;3.47;;;14.70;92.70;;;;;;6247515;28;20060;-76
2023/05/19 09:20:17;;;;;;;8.30;3.47;;;14.60;93.40;;;;;;6246464;28;20057;-73
2023/05/19 09:23:19;;;;;;;9.75;3.75;;;14.60;93.30;;;;;;6246912;28;20064;-76
2023/05/19 09:26:23;;;;;;;9.38;3.53;;;14.50;93.30;;;;;;6246994;28;20630;-75
2023/05/19 09:29:25;;;;;;;9.05;3.63;;;14.50;93.50;;;;;;6251425;28;20054;-73
2023/05/19 09:32:27;;;;;;;7.85;3.30;;;14.70;93.40;;;;;;6234426;28;20052;-74
2023/05/19 09:35:29;;;;;;;10.15;3.22;;;14.80;93.10;;;;;;6241904;28;20870;-76
2023/05/19 09:38:31;;;;;;;8.18;3.47;;;14.80;93.00;;;;;;6252987;28;20050;-74
2023/05/19 09:41:34;;;;;;;8.45;3.47;;;14.70;92.70;;;;;;6253264;28;20483;-74
2023/05/19 09:44:36;;;;;;;8.18;3.38;;;14.60;92.60;;;;;;6253015;28;20060;-74
2023/05/19 09:47:40;;;;;;;9.90;3.75;;;14.70;93.50;;;;;;6265678;28;20069;-76
2023/05/19 09:50:44;;;;;;;11.02;4.05;;;14.80;93.30;;;;;;6259491;28;20045;-74
2023/05/19 09:53:46;;;;;;;8.98;3.65;;;14.80;93.40;;;;;;6259074;28;20057;-73
2023/05/19 09:56:58;;;;;;;9.93;3.60;;;14.70;92.90;;;;;;6256216;28;20053;-73
2023/05/19 10:00:00;;;;;;;8.77;3.00;;;14.60;93.10;;;;;;6243120;28;20049;-74
2023/05/19 10:03:04;;;;;;;11.75;3.35;;;14.70;93.60;;;;;;6251404;28;20052;-74
2023/05/19 10:06:08;;;;;;;8.55;3.30;;;14.60;93.00;;;;;;6250471;28;20136;-74
2023/05/19 10:09:10;;;;;;;8.32;3.15;;;14.70;92.70;;;;;;6251490;28;20046;-73
2023/05/19 10:12:14;;;;;;;8.23;3.40;;;14.80;93.00;;;;;;6244972;28;20053;-73
2023/05/19 10:15:18;;;;;;;8.10;3.20;;;14.70;92.50;;;;;;6251130;28;20052;-73
2023/05/19 10:18:22;;;;;;;8.00;3.45;;;14.80;92.40;;;;;;6252069;28;20045;-74
2023/05/19 10:21:26;;;;;;;10.88;3.30;;;14.70;92.90;;;;;;6254057;28;20058;-74
2023/05/19 10:24:28;;;;;;;7.97;3.05;;;14.60;93.10;;;;;;6255102;28;20057;-74
2023/05/19 10:27:34;;;;;;;8.55;3.13;;;14.70;93.30;;;;;;6250493;28;20053;-74
2023/05/19 10:30:39;;;;;;;7.38;3.20;;;14.80;93.10;;;;;;6251176;28;20487;-74
2023/05/19 10:34:00;;;;;;;6.50;3.35;;;14.60;93.00;;;;;;6256960;28;20041;-74
2023/05/19 10:37:13;;;;;;;7.65;2.88;;;14.80;92.60;;;;;;6260020;28;20046;-75
2023/05/19 10:40:23;;;;;;;8.27;3.50;;;14.90;92.40;;;;;;6264873;28;20434;-73
2023/05/19 10:43:39;;;;;;;9.23;3.38;;;15.00;92.40;;;;;;6257880;28;20049;-74
2023/05/19 10:46:41;;;;;;;9.27;3.22;;;15.00;92.30;;;;;;6253149;28;20058;-74
2023/05/19 10:49:44;;;;;;;6.68;2.72;;;15.00;92.60;;;;;;6263006;28;20050;-74
2023/05/19 10:52:54;;;;;;;8.40;3.30;;;15.10;92.70;;;;;;6265494;28;20045;-75
2023/05/19 10:55:57;;;;;;;9.27;3.20;;;15.20;92.30;;;;;;6263858;28;20041;-74
2023/05/19 10:59:01;;;;;;;8.70;3.35;;;15.20;92.10;;;;;;6266697;28;20057;-74
2023/05/19 11:02:05;;;;;;;12.30;3.40;;;15.20;92.40;;;;;;6267171;28;20048;-75
2023/05/19 11:05:15;;;;;;;9.90;5.55;;;15.10;92.00;;;;;;6267491;28;20084;-74
2023/05/19 11:08:17;;;;;;;9.55;3.70;;;15.20;92.20;;;;;;6267461;28;20053;-74
2023/05/19 11:11:19;;;;;;;9.07;3.33;;;15.30;92.50;;;;;;6265827;28;20050;-75
2023/05/19 11:14:26;;;;;;;6.45;2.92;;;15.20;92.30;;;;;;6251740;28;20081;-75
2023/05/19 11:17:29;;;;;;;8.45;3.40;;;15.30;91.90;;;;;;6249862;28;20041;-74
2023/05/19 11:20:33;;;;;;;7.50;3.17;;;15.10;91.60;;;;;;6249632;28;20060;-74
2023/05/19 11:23:39;;;;;;;9.25;3.05;;;15.00;91.80;;;;;;6249825;28;20304;-73
2023/05/19 11:26:42;;;;;;;5.72;2.83;;;15.00;92.00;;;;;;6249633;28;20057;-74
2023/05/19 11:29:47;;;;;;;8.27;3.63;;;15.00;91.90;;;;;;6249160;28;20045;-74
2023/05/19 11:32:49;;;;;;;6.95;2.80;;;15.00;91.90;;;;;;6249094;28;20434;-73
2023/05/19 11:35:51;;;;;;;7.50;2.80;;;15.00;91.70;;;;;;6248701;28;20077;-74
2023/05/19 11:38:53;;;;;;;7.75;3.13;;;15.10;91.90;;;;;;6248716;28;20045;-74
2023/05/19 11:41:55;;;;;;;7.15;2.97;;;15.10;91.90;;;;;;6248518;28;20056;-73
2023/05/19 11:44:59;;;;;;;9.52;3.33;;;14.90;92.20;;;;;;6248580;28;20053;-73
2023/05/19 11:48:01;;;;;;;8.48;3.13;;;15.00;92.50;;;;;;6248248;28;20491;-73
2023/05/19 11:51:04;;;;;;;7.07;3.08;;;15.10;92.20;;;;;;6247700;28;20479;-73
2023/05/19 11:54:06;;;;;;;10.18;3.20;;;15.10;92.00;;;;;;6248819;28;20056;-72
2023/05/19 11:57:09;;;;;;;8.07;3.22;;;15.10;91.80;;;;;;6252778;28;20049;-73
2023/05/19 12:00:14;;;;;;;8.50;3.00;;;15.20;92.20;;;;;;6250681;28;20411;-73
2023/05/19 12:03:21;;;;;;;6.93;3.10;;;15.30;91.50;;;;;;6248305;28;20050;-73
2023/05/19 12:06:23;;;;;;;6.72;3.25;;;15.20;91.40;;;;;;6247444;28;20407;-73
2023/05/19 12:09:25;;;;;;;8.52;3.30;;;15.10;91.40;;;;;;6247779;28;20053;-73
2023/05/19 12:12:29;;;;;;;10.23;3.30;;;15.30;91.70;;;;;;6247935;28;20056;-73
2023/05/19 12:15:33;;;;;;;9.23;4.50;;;15.30;92.20;;;;;;6248081;28;20041;-73
2023/05/19 12:18:37;;;;;;;6.22;3.17;;;15.40;91.90;;;;;;6249271;28;20057;-74
2023/05/19 12:21:40;;;;;;;9.50;3.30;;;15.30;91.80;;;;;;6248944;28;20068;-72
2023/05/19 12:24:43;;;;;;;6.38;3.45;;;15.00;91.80;;;;;;6258262;28;20518;-73
2023/05/19 12:27:47;;;;;;;9.75;3.28;;;15.20;91.60;;;;;;6258714;28;20055;-73
2023/05/19 12:30:51;;;;;;;7.28;3.92;;;15.40;91.80;;;;;;6256953;28;20494;-74
2023/05/19 12:33:53;;;;;;;8.73;3.30;;;15.40;91.90;;;;;;6248007;28;20096;-73
2023/05/19 12:36:55;;;;;;;8.30;3.45;;;15.40;91.80;;;;;;6247787;28;20061;-73
2023/05/19 12:39:57;;;;;;;8.23;3.05;;;15.60;91.30;;;;;;6247637;28;20042;-75
2023/05/19 12:42:59;;;;;;;5.93;3.20;;;15.80;91.50;;;;;;6247956;28;20128;-74
2023/05/19 12:46:11;;;;;;;7.55;3.13;;;15.60;91.30;;;;;;6255792;28;20041;-73
2023/05/19 12:49:13;;;;;;;7.50;2.85;;;15.60;91.10;;;;;;6267314;28;20049;-73
2023/05/19 12:52:15;;;;;;;8.57;3.22;;;15.80;90.90;;;;;;6269377;28;20049;-73
2023/05/19 12:55:19;;;;;;;8.77;3.45;;;15.90;90.70;;;;;;6262149;28;20054;-73
2023/05/19 12:58:22;;;;;;;8.23;3.25;;;16.00;91.10;;;;;;6248738;28;20176;-74
2023/05/19 13:01:25;;;;;;;9.50;3.27;;;15.90;91.10;;;;;;6250278;28;20045;-73
2023/05/19 13:04:27;;;;;;;8.18;3.40;;;15.70;90.90;;;;;;6254589;28;20495;-74
2023/05/19 13:07:29;;;;;;;8.23;3.65;;;15.60;90.60;;;;;;6260603;28;20041;-73
2023/05/19 13:10:31;;;;;;;7.60;3.63;;;15.70;91.70;;;;;;6260583;28;20049;-74
2023/05/19 13:13:33;;;;;;;7.70;3.28;;;15.70;91.30;;;;;;6260847;28;20061;-73
2023/05/19 13:16:36;;;;;;;9.15;3.28;;;15.70;91.10;;;;;;6259159;28;20051;-73
2023/05/19 13:19:38;;;;;;;8.30;3.60;;;15.60;90.60;;;;;;6252057;28;20491;-74
2023/05/19 13:22:40;;;;;;;7.60;3.55;;;15.80;91.20;;;;;;6251909;28;20042;-75
2023/05/19 13:25:43;;;;;;;8.18;3.42;;;16.00;91.10;;;;;;6251767;28;20049;-74
2023/05/19 13:28:45;;;;;;;7.10;3.15;;;16.00;90.90;;;;;;6251619;28;20049;-73
2023/05/19 13:31:48;;;;;;;13.15;4.80;;;16.10;90.90;;;;;;6251777;28;20049;-73
2023/05/19 13:34:50;;;;;;;11.48;3.88;;;16.00;90.30;;;;;;6251596;28;20049;-72
2023/05/19 13:37:52;;;;;;;6.88;3.58;;;16.00;90.60;;;;;;6251640;28;20057;-74
2023/05/19 13:40:54;;;;;;;9.48;3.65;;;15.90;90.70;;;;;;6251451;28;20080;-74
2023/05/19 13:43:58;;;;;;;8.10;3.50;;;15.90;91.30;;;;;;6251829;28;20056;-73
2023/05/19 13:47:02;;;;;;;9.57;3.72;;;16.00;91.20;;;;;;6251248;28;20048;-73
2023/05/19 13:50:05;;;;;;;9.02;3.33;;;16.10;91.00;;;;;;6251992;28;20045;-74
2023/05/19 13:53:08;;;;;;;10.05;3.95;;;16.00;91.10;;;;;;6251634;28;20083;-74
2023/05/19 13:56:10;;;;;;;8.77;3.70;;;16.00;90.30;;;;;;6251522;28;20056;-73
2023/05/19 13:59:12;;;;;;;7.88;3.95;;;16.00;91.10;;;;;;6251147;28;20055;-72
2023/05/19 14:02:15;;;;;;;12.23;3.83;;;15.90;91.10;;;;;;6251800;28;20096;-74
2023/05/19 14:05:17;;;;;;;10.05;3.83;;;15.80;91.40;;;;;;6253422;28;20049;-73
2023/05/19 14:08:19;;;;;;;8.77;4.05;;;16.00;90.80;;;;;;6253013;28;20054;-73
2023/05/19 14:11:21;;;;;;;7.53;3.63;;;15.80;91.10;;;;;;6252469;28;20125;-74
2023/05/19 14:14:23;;;;;;;11.13;3.72;;;16.00;91.20;;;;;;6250177;28;20506;-73
2023/05/19 14:17:27;;;;;;;9.27;4.40;;;16.00;90.60;;;;;;6250724;28;20089;-74
2023/05/19 14:20:29;;;;;;;10.98;4.28;;;15.80;91.00;;;;;;6250258;28;20053;-74
2023/05/19 14:23:32;;;;;;;10.65;4.10;;;15.80;90.60;;;;;;6251071;28;20053;-73
2023/05/19 14:26:34;;;;;;;10.52;3.75;;;15.70;91.20;;;;;;6251163;28;20490;-74
2023/05/19 14:29:36;;;;;;;10.25;4.40;;;15.70;91.00;;;;;;6250985;28;20057;-74
2023/05/19 14:32:39;;;;;;;9.27;4.30;;;15.50;90.70;;;;;;6250881;28;20046;-73
2023/05/19 14:35:41;;;;;;;9.55;3.85;;;15.80;91.20;;;;;;6250895;28;20046;-74
2023/05/19 14:38:43;;;;;;;9.05;3.92;;;15.80;90.80;;;;;;6250636;28;20041;-75
2023/05/19 14:41:45;;;;;;;11.82;4.70;;;15.80;90.80;;;;;;6250032;28;20428;-73
2023/05/19 14:44:47;;;;;;;11.88;4.70;;;15.70;91.20;;;;;;6250065;28;20053;-74
2023/05/19 14:47:51;;;;;;;10.82;4.35;;;15.60;91.30;;;;;;6250147;28;20049;-74
2023/05/19 14:50:53;;;;;;;;;;;15.70;91.30;;;;;;6251446;28;20081;-73
2023/05/19 14:53:54;;;;;;;10.80;5.03;;;15.90;92.50;;;;;;6250210;28;20075;-74
2023/05/19 14:56:56;;;;;;;14.07;4.32;;;16.00;92.10;;;;;;6249954;28;20045;-74
2023/05/19 14:59:58;;;;;;;10.80;4.30;;;16.00;91.60;;;;;;6249763;28;20041;-73
2023/05/19 15:03:01;;;;;;;12.73;4.43;;;16.00;92.00;;;;;;6249882;28;20053;-73
2023/05/19 15:06:08;;;;;;;9.25;4.43;;;15.80;91.30;;;;;;6249390;28;20071;-74
2023/05/19 15:09:13;;;;;;;11.65;4.70;;;15.80;91.50;;;;;;6249536;28;20483;-74
2023/05/19 15:12:14;;;;;;;7.32;3.83;;;16.00;91.50;;;;;;6249604;28;20075;-75
2023/05/19 15:15:17;;;;;;;13.23;4.43;;;15.90;91.60;;;;;;6249776;28;20053;-74
2023/05/19 15:18:20;;;;;;;11.23;4.00;;;16.10;91.60;;;;;;6249550;28;20057;-75
2023/05/19 15:21:22;;;;;;;10.88;4.13;;;16.10;91.40;;;;;;6249137;28;20053;-74
2023/05/19 15:24:24;;;;;;;11.68;4.50;;;16.20;91.10;;;;;;6248144;28;20042;-73
2023/05/19 15:27:25;;;;;;;8.52;3.60;;;16.30;90.90;;;;;;6249125;28;20398;-73
2023/05/19 15:30:27;;;;;;;10.23;3.72;;;16.30;90.80;;;;;;6248821;28;20058;-75
2023/05/19 15:33:30;;;;;;;9.52;3.80;;;16.20;91.00;;;;;;6248990;28;20045;-73
2023/05/19 15:36:32;;;;;;;9.48;3.90;;;16.20;90.90;;;;;;6248892;28;20046;-74
2023/05/19 15:39:34;;;;;;;7.55;3.63;;;16.30;91.00;;;;;;6248660;28;20075;-75
2023/05/19 15:42:36;;;;;;;8.82;3.80;;;16.30;91.40;;;;;;6249631;28;20107;-74
2023/05/19 15:45:38;;;;;;;8.52;4.18;;;16.40;90.10;;;;;;6248598;28;20050;-75
2023/05/19 15:48:41;;;;;;;8.10;3.80;;;16.40;90.50;;;;;;6250056;28;20059;-74
2023/05/19 15:51:43;;;;;;;7.75;4.00;;;16.60;90.60;;;;;;6250741;28;20164;-73
2023/05/19 15:54:47;;;;;;;8.88;4.78;;;16.70;90.10;;;;;;6251332;28;20128;-75
2023/05/19 15:57:49;;;;;;;;;;;16.60;90.50;;;;;;6251193;28;20072;-73